sensor_id;sensor_type;location;lat;lon;timestamp;pressure;altitude;pressure_sealevel;temperature;humidity
11525;BME280;5819;49.648;8.330;2022-09-20T00:01:16;100905.00;;;11.85;100.00
11525;BME280;5819;49.648;8.330;2022-09-20T00:03:48;100909.44;;;11.83;100.00
11525;BME280;5819;49.648;8.330;2022-09-20T00:06:19;100912.81;;;11.85;100.00
11525;BME280;5819;49.648;8.330;2022-09-20T00:08:48;100906.91;;;11.80;100.00
11525;BME280;5819;49.648;8.330;2022-09-20T00:11:18;100914.66;;;11.83;100.00
11525;BME280;5819;49.648;8.330;2022-09-20T00:13:48;100906.81;;;11.83;100.00
11525;BME280;5819;49.648;8.330;2022-09-20T00:16:19;100914.81;;;11.79;100.00
11525;BME280;5819;49.648;8.330;2022-09-20T00:18:48;100917.59;;;11.74;100.00
11525;BME280;5819;49.648;8.330;2022-09-20T00:21:19;100915.47;;;11.84;100.00
11525;BME280;5819;49.648;8.330;2022-09-20T00:23:47;100916.69;;;11.75;100.00
11525;BME280;5819;49.648;8.330;2022-09-20T00:26:15;100913.28;;;11.73;100.00
11525;BME280;5819;49.648;8.330;2022-09-20T00:28:43;100914.28;;;11.69;100.00
11525;BME280;5819;49.648;8.330;2022-09-20T00:31:13;100915.38;;;11.63;100.00
11525;BME280;5819;49.648;8.330;2022-09-20T00:33:41;100918.06;;;11.60;100.00
11525;BME280;5819;49.648;8.330;2022-09-20T00:36:29;100915.16;;;11.68;100.00
11525;BME280;5819;49.648;8.330;2022-09-20T00:38:58;100915.94;;;11.71;100.00
11525;BME280;5819;49.648;8.330;2022-09-20T00:41:27;100915.88;;;11.73;100.00
11525;BME280;5819;49.648;8.330;2022-09-20T00:43:56;100919.38;;;11.72;100.00
11525;BME280;5819;49.648;8.330;2022-09-20T00:46:28;100924.00;;;11.64;100.00
11525;BME280;5819;49.648;8.330;2022-09-20T00:48:59;100923.91;;;11.67;100.00
11525;BME280;5819;49.648;8.330;2022-09-20T00:51:33;100917.78;;;11.68;100.00
11525;BME280;5819;49.648;8.330;2022-09-20T00:54:03;100922.34;;;11.63;100.00
11525;BME280;5819;49.648;8.330;2022-09-20T00:56:36;100920.75;;;11.59;100.00
11525;BME280;5819;49.648;8.330;2022-09-20T00:59:11;100920.38;;;11.68;100.00
11525;BME280;5819;49.648;8.330;2022-09-20T01:01:42;100922.38;;;11.61;100.00
11525;BME280;5819;49.648;8.330;2022-09-20T01:04:11;100920.00;;;11.55;100.00
11525;BME280;5819;49.648;8.330;2022-09-20T01:06:42;100915.69;;;11.54;100.00
11525;BME280;5819;49.648;8.330;2022-09-20T01:09:11;100920.19;;;11.51;100.00
11525;BME280;5819;49.648;8.330;2022-09-20T01:11:39;100917.63;;;11.49;100.00
11525;BME280;5819;49.648;8.330;2022-09-20T01:14:08;100916.72;;;11.50;100.00
11525;BME280;5819;49.648;8.330;2022-09-20T01:16:36;100920.09;;;11.52;100.00
11525;BME280;5819;49.648;8.330;2022-09-20T01:19:12;100920.97;;;11.53;100.00
11525;BME280;5819;49.648;8.330;2022-09-20T01:21:44;100919.25;;;11.52;100.00
11525;BME280;5819;49.648;8.330;2022-09-20T01:24:16;100917.78;;;11.45;100.00
11525;BME280;5819;49.648;8.330;2022-09-20T01:27:09;100923.28;;;11.37;100.00
11525;BME280;5819;49.648;8.330;2022-09-20T01:29:55;100922.38;;;11.38;100.00
11525;BME280;5819;49.648;8.330;2022-09-20T01:32:41;100918.13;;;11.36;100.00
11525;BME280;5819;49.648;8.330;2022-09-20T01:35:11;100914.72;;;11.34;100.00
11525;BME280;5819;49.648;8.330;2022-09-20T01:37:49;100914.94;;;11.27;100.00
11525;BME280;5819;49.648;8.330;2022-09-20T01:40:26;100909.72;;;11.27;100.00
11525;BME280;5819;49.648;8.330;2022-09-20T01:43:01;100907.13;;;11.27;100.00
11525;BME280;5819;49.648;8.330;2022-09-20T01:45:37;100904.03;;;11.18;100.00
11525;BME280;5819;49.648;8.330;2022-09-20T01:48:15;100903.22;;;11.16;100.00
11525;BME280;5819;49.648;8.330;2022-09-20T01:54:12;100916.22;;;11.16;100.00
11525;BME280;5819;49.648;8.330;2022-09-20T01:57:06;100918.09;;;11.12;100.00
11525;BME280;5819;49.648;8.330;2022-09-20T02:02:59;100917.41;;;11.07;100.00
11525;BME280;5819;49.648;8.330;2022-09-20T02:05:49;100915.88;;;11.02;100.00
11525;BME280;5819;49.648;8.330;2022-09-20T02:11:34;100924.72;;;10.98;100.00
11525;BME280;5819;49.648;8.330;2022-09-20T02:14:23;100919.19;;;10.82;100.00
11525;BME280;5819;49.648;8.330;2022-09-20T02:16:55;100920.94;;;10.82;100.00
11525;BME280;5819;49.648;8.330;2022-09-20T02:19:48;100918.47;;;10.77;100.00
11525;BME280;5819;49.648;8.330;2022-09-20T02:22:26;100919.50;;;10.73;100.00
11525;BME280;5819;49.648;8.330;2022-09-20T02:25:02;100923.91;;;10.71;100.00
11525;BME280;5819;49.648;8.330;2022-09-20T02:27:42;100912.94;;;10.61;100.00
11525;BME280;5819;49.648;8.330;2022-09-20T02:30:23;100921.38;;;10.68;100.00
11525;BME280;5819;49.648;8.330;2022-09-20T02:33:10;100923.06;;;10.70;100.00
11525;BME280;5819;49.648;8.330;2022-09-20T02:35:49;100910.53;;;10.55;100.00
11525;BME280;5819;49.648;8.330;2022-09-20T02:38:31;100921.03;;;10.52;100.00
11525;BME280;5819;49.648;8.330;2022-09-20T02:41:27;100927.16;;;10.51;100.00
11525;BME280;5819;49.648;8.330;2022-09-20T02:44:08;100923.13;;;10.43;100.00
11525;BME280;5819;49.648;8.330;2022-09-20T02:46:44;100925.00;;;10.38;100.00
11525;BME280;5819;49.648;8.330;2022-09-20T02:49:20;100927.47;;;10.42;100.00
11525;BME280;5819;49.648;8.330;2022-09-20T02:51:56;100930.97;;;10.41;100.00
11525;BME280;5819;49.648;8.330;2022-09-20T02:54:34;100929.25;;;10.40;100.00
11525;BME280;5819;49.648;8.330;2022-09-20T02:57:14;100933.00;;;10.31;100.00
11525;BME280;5819;49.648;8.330;2022-09-20T02:59:49;100935.81;;;10.25;100.00
11525;BME280;5819;49.648;8.330;2022-09-20T03:02:25;100934.06;;;10.26;100.00
11525;BME280;5819;49.648;8.330;2022-09-20T03:05:06;100942.66;;;10.28;100.00
11525;BME280;5819;49.648;8.330;2022-09-20T03:07:45;100938.41;;;10.25;100.00
11525;BME280;5819;49.648;8.330;2022-09-20T03:10:24;100934.94;;;10.25;100.00
11525;BME280;5819;49.648;8.330;2022-09-20T03:13:04;100937.66;;;10.22;100.00
11525;BME280;5819;49.648;8.330;2022-09-20T03:15:47;100938.44;;;10.24;100.00
11525;BME280;5819;49.648;8.330;2022-09-20T03:18:28;100936.59;;;10.27;100.00
11525;BME280;5819;49.648;8.330;2022-09-20T03:21:08;100941.97;;;10.23;100.00
11525;BME280;5819;49.648;8.330;2022-09-20T03:23:49;100945.38;;;10.23;100.00
11525;BME280;5819;49.648;8.330;2022-09-20T03:26:31;100944.72;;;10.18;100.00
11525;BME280;5819;49.648;8.330;2022-09-20T03:29:04;100952.53;;;10.17;100.00
11525;BME280;5819;49.648;8.330;2022-09-20T03:31:54;100955.19;;;10.15;100.00
11525;BME280;5819;49.648;8.330;2022-09-20T03:34:38;100953.50;;;10.13;100.00
11525;BME280;5819;49.648;8.330;2022-09-20T03:37:24;100958.91;;;10.07;100.00
11525;BME280;5819;49.648;8.330;2022-09-20T03:40:23;100961.63;;;10.02;100.00
11525;BME280;5819;49.648;8.330;2022-09-20T03:43:03;100952.22;;;9.98;100.00
11525;BME280;5819;49.648;8.330;2022-09-20T03:45:52;100959.22;;;9.96;100.00
11525;BME280;5819;49.648;8.330;2022-09-20T03:48:42;100955.88;;;9.91;100.00
11525;BME280;5819;49.648;8.330;2022-09-20T03:51:20;100952.47;;;9.91;100.00
11525;BME280;5819;49.648;8.330;2022-09-20T03:57:33;100941.50;;;9.79;100.00
11525;BME280;5819;49.648;8.330;2022-09-20T04:00:22;100943.22;;;9.80;100.00
11525;BME280;5819;49.648;8.330;2022-09-20T04:02:59;100938.84;;;9.82;100.00
11525;BME280;5819;49.648;8.330;2022-09-20T04:05:36;100934.44;;;9.84;100.00
11525;BME280;5819;49.648;8.330;2022-09-20T04:08:14;100934.53;;;9.81;100.00
11525;BME280;5819;49.648;8.330;2022-09-20T04:10:53;100938.00;;;9.82;100.00
11525;BME280;5819;49.648;8.330;2022-09-20T04:13:34;100946.59;;;9.84;100.00
11525;BME280;5819;49.648;8.330;2022-09-20T04:16:21;100950.03;;;9.84;100.00
11525;BME280;5819;49.648;8.330;2022-09-20T04:18:56;100950.78;;;9.88;100.00
11525;BME280;5819;49.648;8.330;2022-09-20T04:21:31;100950.69;;;9.91;100.00
11525;BME280;5819;49.648;8.330;2022-09-20T04:24:07;100953.97;;;9.98;100.00
11525;BME280;5819;49.648;8.330;2022-09-20T04:26:40;100950.63;;;9.94;100.00
11525;BME280;5819;49.648;8.330;2022-09-20T04:29:24;100959.31;;;9.93;100.00
11525;BME280;5819;49.648;8.330;2022-09-20T04:32:01;100963.66;;;9.93;100.00
11525;BME280;5819;49.648;8.330;2022-09-20T04:34:34;100961.91;;;9.93;100.00
11525;BME280;5819;49.648;8.330;2022-09-20T04:37:27;100958.31;;;9.97;100.00
11525;BME280;5819;49.648;8.330;2022-09-20T04:40:06;100962.78;;;9.92;100.00
11525;BME280;5819;49.648;8.330;2022-09-20T04:43:15;100962.69;;;9.95;100.00
11525;BME280;5819;49.648;8.330;2022-09-20T04:46:30;100963.50;;;9.97;100.00
11525;BME280;5819;49.648;8.330;2022-09-20T04:49:37;100970.34;;;10.00;100.00
11525;BME280;5819;49.648;8.330;2022-09-20T04:52:22;100966.88;;;10.01;100.00
11525;BME280;5819;49.648;8.330;2022-09-20T04:58:34;100969.44;;;10.02;100.00
11525;BME280;5819;49.648;8.330;2022-09-20T05:10:54;100991.50;;;10.18;100.00
11525;BME280;5819;49.648;8.330;2022-09-20T05:13:34;100986.38;;;10.15;100.00
11525;BME280;5819;49.648;8.330;2022-09-20T05:16:11;100990.75;;;10.15;100.00
11525;BME280;5819;49.648;8.330;2022-09-20T05:19:12;100993.25;;;10.18;100.00
11525;BME280;5819;49.648;8.330;2022-09-20T05:22:02;100990.66;;;10.18;100.00
11525;BME280;5819;49.648;8.330;2022-09-20T05:24:45;100987.81;;;10.25;100.00
11525;BME280;5819;49.648;8.330;2022-09-20T05:27:32;100989.41;;;10.29;100.00
11525;BME280;5819;49.648;8.330;2022-09-20T05:30:04;100990.03;;;10.38;100.00
11525;BME280;5819;49.648;8.330;2022-09-20T05:32:42;100990.75;;;10.43;100.00
11525;BME280;5819;49.648;8.330;2022-09-20T05:35:17;100991.41;;;10.48;100.00
11525;BME280;5819;49.648;8.330;2022-09-20T05:37:54;100988.66;;;10.54;100.00
11525;BME280;5819;49.648;8.330;2022-09-20T05:40:30;100985.94;;;10.57;100.00
11525;BME280;5819;49.648;8.330;2022-09-20T05:43:08;100988.44;;;10.60;100.00
11525;BME280;5819;49.648;8.330;2022-09-20T05:45:55;100998.19;;;10.53;100.00
11525;BME280;5819;49.648;8.330;2022-09-20T05:48:34;100998.22;;;10.52;100.00
11525;BME280;5819;49.648;8.330;2022-09-20T05:51:11;100995.72;;;10.49;100.00
11525;BME280;5819;49.648;8.330;2022-09-20T05:53:59;101001.91;;;10.46;100.00
11525;BME280;5819;49.648;8.330;2022-09-20T05:56:41;101008.75;;;10.49;100.00
11525;BME280;5819;49.648;8.330;2022-09-20T05:59:27;101012.00;;;10.55;100.00
11525;BME280;5819;49.648;8.330;2022-09-20T06:02:14;101012.00;;;10.55;100.00
11525;BME280;5819;49.648;8.330;2022-09-20T06:04:51;101004.19;;;10.55;100.00
11525;BME280;5819;49.648;8.330;2022-09-20T06:07:32;101012.94;;;10.53;100.00
11525;BME280;5819;49.648;8.330;2022-09-20T06:10:40;101013.75;;;10.55;100.00
11525;BME280;5819;49.648;8.330;2022-09-20T06:13:35;101013.53;;;10.62;100.00
11525;BME280;5819;49.648;8.330;2022-09-20T06:16:12;101014.13;;;10.70;100.00
11525;BME280;5819;49.648;8.330;2022-09-20T06:18:50;101010.53;;;10.74;100.00
11525;BME280;5819;49.648;8.330;2022-09-20T06:21:29;101013.97;;;10.75;100.00
11525;BME280;5819;49.648;8.330;2022-09-20T06:24:04;101019.53;;;10.91;100.00
11525;BME280;5819;49.648;8.330;2022-09-20T06:26:40;101013.41;;;10.92;100.00
11525;BME280;5819;49.648;8.330;2022-09-20T06:29:13;101016.78;;;10.95;100.00
11525;BME280;5819;49.648;8.330;2022-09-20T06:31:43;101015.81;;;10.98;100.00
11525;BME280;5819;49.648;8.330;2022-09-20T06:34:14;101015.66;;;11.02;100.00
11525;BME280;5819;49.648;8.330;2022-09-20T06:36:47;101017.16;;;11.09;100.00
11525;BME280;5819;49.648;8.330;2022-09-20T06:39:39;101017.78;;;11.16;100.00
11525;BME280;5819;49.648;8.330;2022-09-20T06:42:27;101028.47;;;11.33;100.00
11525;BME280;5819;49.648;8.330;2022-09-20T06:44:56;101028.31;;;11.38;100.00
11525;BME280;5819;49.648;8.330;2022-09-20T06:47:24;101030.03;;;11.39;100.00
11525;BME280;5819;49.648;8.330;2022-09-20T06:49:52;101026.25;;;11.47;100.00
11525;BME280;5819;49.648;8.330;2022-09-20T06:52:21;101033.16;;;11.48;100.00
11525;BME280;5819;49.648;8.330;2022-09-20T06:54:51;101035.66;;;11.51;100.00
11525;BME280;5819;49.648;8.330;2022-09-20T06:57:23;101030.13;;;11.60;100.00
11525;BME280;5819;49.648;8.330;2022-09-20T06:59:57;101027.47;;;11.62;100.00
11525;BME280;5819;49.648;8.330;2022-09-20T07:02:25;101029.22;;;11.61;100.00
11525;BME280;5819;49.648;8.330;2022-09-20T07:04:53;101026.59;;;11.61;100.00
11525;BME280;5819;49.648;8.330;2022-09-20T07:07:25;101030.94;;;11.62;100.00
11525;BME280;5819;49.648;8.330;2022-09-20T07:09:53;101026.50;;;11.64;100.00
11525;BME280;5819;49.648;8.330;2022-09-20T07:12:21;101029.84;;;11.68;100.00
11525;BME280;5819;49.648;8.330;2022-09-20T07:14:50;101031.66;;;11.66;100.00
11525;BME280;5819;49.648;8.330;2022-09-20T07:17:19;101031.59;;;11.67;100.00
11525;BME280;5819;49.648;8.330;2022-09-20T07:19:47;101031.94;;;11.83;100.00
11525;BME280;5819;49.648;8.330;2022-09-20T07:22:15;101034.47;;;12.08;100.00
11525;BME280;5819;49.648;8.330;2022-09-20T07:24:44;101036.22;;;12.31;100.00
11525;BME280;5819;49.648;8.330;2022-09-20T07:27:12;101041.13;;;12.38;98.78
11525;BME280;5819;49.648;8.330;2022-09-20T07:29:39;101036.91;;;12.57;99.50
11525;BME280;5819;49.648;8.330;2022-09-20T07:32:08;101039.00;;;12.70;97.52
11525;BME280;5819;49.648;8.330;2022-09-20T07:34:37;101036.63;;;12.85;97.97
11525;BME280;5819;49.648;8.330;2022-09-20T07:37:05;101037.66;;;12.81;95.85
11525;BME280;5819;49.648;8.330;2022-09-20T07:39:33;101045.31;;;12.86;96.12
11525;BME280;5819;49.648;8.330;2022-09-20T07:42:01;101055.16;;;12.79;94.48
11525;BME280;5819;49.648;8.330;2022-09-20T07:44:31;101052.47;;;12.81;95.53
11525;BME280;5819;49.648;8.330;2022-09-20T07:46:59;101049.69;;;12.85;98.85
11525;BME280;5819;49.648;8.330;2022-09-20T07:49:28;101049.94;;;12.79;100.00
11525;BME280;5819;49.648;8.330;2022-09-20T07:51:58;101057.69;;;12.81;100.00
11525;BME280;5819;49.648;8.330;2022-09-20T07:54:26;101056.66;;;12.85;100.00
11525;BME280;5819;49.648;8.330;2022-09-20T07:56:54;101057.69;;;12.81;100.00
11525;BME280;5819;49.648;8.330;2022-09-20T07:59:22;101063.66;;;12.84;100.00
11525;BME280;5819;49.648;8.330;2022-09-20T08:01:51;101062.56;;;12.90;96.99
11525;BME280;5819;49.648;8.330;2022-09-20T08:04:19;101062.25;;;12.97;95.54
11525;BME280;5819;49.648;8.330;2022-09-20T08:06:47;101059.19;;;13.08;95.12
11525;BME280;5819;49.648;8.330;2022-09-20T08:09:17;101058.28;;;13.09;92.60
11525;BME280;5819;49.648;8.330;2022-09-20T08:11:45;101070.28;;;13.15;96.51
11525;BME280;5819;49.648;8.330;2022-09-20T08:14:15;101068.56;;;13.13;93.72
11525;BME280;5819;49.648;8.330;2022-09-20T08:16:45;101073.56;;;13.20;93.67
11525;BME280;5819;49.648;8.330;2022-09-20T08:19:15;101065.44;;;13.26;95.36
11525;BME280;5819;49.648;8.330;2022-09-20T08:21:44;101068.66;;;13.32;94.43
11525;BME280;5819;49.648;8.330;2022-09-20T08:24:12;101066.03;;;13.32;96.50
11525;BME280;5819;49.648;8.330;2022-09-20T08:26:43;101078.91;;;13.37;97.70
11525;BME280;5819;49.648;8.330;2022-09-20T08:29:11;101071.69;;;13.43;96.23
11525;BME280;5819;49.648;8.330;2022-09-20T08:31:40;101066.25;;;13.48;96.84
11525;BME280;5819;49.648;8.330;2022-09-20T08:34:10;101070.63;;;13.68;93.43
11525;BME280;5819;49.648;8.330;2022-09-20T08:36:41;101076.53;;;13.91;93.29
11525;BME280;5819;49.648;8.330;2022-09-20T08:39:12;101072.22;;;13.90;94.34
11525;BME280;5819;49.648;8.330;2022-09-20T08:42:08;101075.88;;;13.86;91.81
11525;BME280;5819;49.648;8.330;2022-09-20T08:44:44;101082.72;;;13.89;89.61
11525;BME280;5819;49.648;8.330;2022-09-20T08:47:25;101072.44;;;14.04;92.97
11525;BME280;5819;49.648;8.330;2022-09-20T08:49:54;101077.00;;;14.20;89.09
11525;BME280;5819;49.648;8.330;2022-09-20T08:52:27;101076.59;;;14.08;91.25
11525;BME280;5819;49.648;8.330;2022-09-20T08:55:04;101068.19;;;14.02;90.73
11525;BME280;5819;49.648;8.330;2022-09-20T08:57:43;101073.63;;;13.97;89.71
11525;BME280;5819;49.648;8.330;2022-09-20T09:00:16;101084.44;;;13.90;89.78
11525;BME280;5819;49.648;8.330;2022-09-20T09:02:44;101077.47;;;13.70;92.31
11525;BME280;5819;49.648;8.330;2022-09-20T09:05:28;101086.88;;;13.74;87.87
11525;BME280;5819;49.648;8.330;2022-09-20T09:07:58;101082.00;;;13.67;89.16
11525;BME280;5819;49.648;8.330;2022-09-20T09:10:34;101076.22;;;13.79;88.89
11525;BME280;5819;49.648;8.330;2022-09-20T09:13:17;101080.78;;;13.94;87.24
11525;BME280;5819;49.648;8.330;2022-09-20T09:15:53;101074.78;;;14.29;83.42
11525;BME280;5819;49.648;8.330;2022-09-20T09:18:29;101070.31;;;14.13;86.54
11525;BME280;5819;49.648;8.330;2022-09-20T09:20:59;101069.84;;;14.23;85.28
11525;BME280;5819;49.648;8.330;2022-09-20T09:23:37;101067.13;;;14.25;84.93
11525;BME280;5819;49.648;8.330;2022-09-20T09:26:14;101069.84;;;14.23;82.90
11525;BME280;5819;49.648;8.330;2022-09-20T09:28:44;101071.00;;;14.36;79.81
11525;BME280;5819;49.648;8.330;2022-09-20T09:31:21;101067.84;;;14.66;79.86
11525;BME280;5819;49.648;8.330;2022-09-20T09:33:51;101065.66;;;14.92;77.41
11525;BME280;5819;49.648;8.330;2022-09-20T09:36:23;101054.28;;;15.11;79.99
11525;BME280;5819;49.648;8.330;2022-09-20T09:39:14;101056.22;;;15.07;80.82
11525;BME280;5819;49.648;8.330;2022-09-20T09:41:43;101060.91;;;15.00;77.73
11525;BME280;5819;49.648;8.330;2022-09-20T09:44:21;101054.69;;;15.20;79.86
11525;BME280;5819;49.648;8.330;2022-09-20T09:46:50;101051.75;;;14.92;81.59
11525;BME280;5819;49.648;8.330;2022-09-20T09:49:21;101063.22;;;14.89;79.62
11525;BME280;5819;49.648;8.330;2022-09-20T09:52:02;101057.72;;;14.77;79.46
11525;BME280;5819;49.648;8.330;2022-09-20T09:54:32;101057.16;;;14.70;82.04
11525;BME280;5819;49.648;8.330;2022-09-20T09:57:12;101054.50;;;14.72;81.34
11525;BME280;5819;49.648;8.330;2022-09-20T09:59:59;101059.50;;;14.93;80.89
11525;BME280;5819;49.648;8.330;2022-09-20T10:02:48;101070.59;;;14.81;77.88
11525;BME280;5819;49.648;8.330;2022-09-20T10:05:23;101065.88;;;14.71;81.99
11525;BME280;5819;49.648;8.330;2022-09-20T10:08:02;101052.56;;;14.92;81.59
11525;BME280;5819;49.648;8.330;2022-09-20T10:10:40;101063.00;;;14.58;80.72
11525;BME280;5819;49.648;8.330;2022-09-20T10:13:19;101047.13;;;14.61;82.45
11525;BME280;5819;49.648;8.330;2022-09-20T10:15:55;101043.63;;;14.96;80.48
11525;BME280;5819;49.648;8.330;2022-09-20T10:18:36;101049.13;;;14.92;78.55
11525;BME280;5819;49.648;8.330;2022-09-20T10:21:17;101042.72;;;14.97;80.00
11525;BME280;5819;49.648;8.330;2022-09-20T10:24:03;101048.28;;;14.91;79.22
11525;BME280;5819;49.648;8.330;2022-09-20T10:26:59;101038.41;;;14.43;81.36
11525;BME280;5819;49.648;8.330;2022-09-20T10:29:39;101044.16;;;14.31;80.09
11525;BME280;5819;49.648;8.330;2022-09-20T10:32:23;101041.88;;;14.61;75.12
11525;BME280;5819;49.648;8.330;2022-09-20T10:35:14;101041.66;;;14.84;77.77
11525;BME280;5819;49.648;8.330;2022-09-20T10:37:57;101048.19;;;14.93;75.95
11525;BME280;5819;49.648;8.330;2022-09-20T10:40:33;101046.25;;;14.79;74.59
11525;BME280;5819;49.648;8.330;2022-09-20T10:43:29;101052.56;;;14.39;74.98
11525;BME280;5819;49.648;8.330;2022-09-20T10:46:12;101049.31;;;14.14;78.85
11525;BME280;5819;49.648;8.330;2022-09-20T10:49:08;101058.09;;;13.94;79.30
11525;BME280;5819;49.648;8.330;2022-09-20T10:51:45;101058.03;;;14.15;81.71
11525;BME280;5819;49.648;8.330;2022-09-20T10:54:27;101056.31;;;14.14;81.81
11525;BME280;5819;49.648;8.330;2022-09-20T10:57:10;101060.28;;;14.03;83.35
11525;BME280;5819;49.648;8.330;2022-09-20T10:59:50;101073.44;;;13.63;85.47
11525;BME280;5819;49.648;8.330;2022-09-20T11:02:40;101070.69;;;13.66;84.51
11525;BME280;5819;49.648;8.330;2022-09-20T11:05:27;101064.16;;;14.32;78.19
11525;BME280;5819;49.648;8.330;2022-09-20T11:08:04;101062.63;;;14.66;78.53
11525;BME280;5819;49.648;8.330;2022-09-20T11:10:36;101066.69;;;14.90;76.35
11525;BME280;5819;49.648;8.330;2022-09-20T11:13:09;101053.75;;;15.21;75.48
11525;BME280;5819;49.648;8.330;2022-09-20T11:15:43;101058.44;;;15.49;72.09
11525;BME280;5819;49.648;8.330;2022-09-20T11:18:16;101056.91;;;15.62;72.65
11525;BME280;5819;49.648;8.330;2022-09-20T11:20:56;101059.53;;;15.79;71.59
11525;BME280;5819;49.648;8.330;2022-09-20T11:23:33;101060.16;;;15.67;69.75
11525;BME280;5819;49.648;8.330;2022-09-20T11:26:09;101053.69;;;15.23;72.30
11525;BME280;5819;49.648;8.330;2022-09-20T11:28:40;101071.28;;;14.68;74.38
11525;BME280;5819;49.648;8.330;2022-09-20T11:31:15;101073.34;;;14.42;75.44
11525;BME280;5819;49.648;8.330;2022-09-20T11:33:47;101086.66;;;14.18;76.99
11525;BME280;5819;49.648;8.330;2022-09-20T11:36:23;101090.47;;;13.92;82.84
11525;BME280;5819;49.648;8.330;2022-09-20T11:38:55;101107.13;;;13.69;86.33
11525;BME280;5819;49.648;8.330;2022-09-20T11:41:26;101103.81;;;13.45;90.41
11525;BME280;5819;49.648;8.330;2022-09-20T11:43:58;101109.38;;;12.94;98.94
11525;BME280;5819;49.648;8.330;2022-09-20T11:46:31;101109.75;;;12.40;100.00
11525;BME280;5819;49.648;8.330;2022-09-20T11:49:07;101096.88;;;12.12;100.00
11525;BME280;5819;49.648;8.330;2022-09-20T11:51:55;101097.25;;;12.27;100.00
11525;BME280;5819;49.648;8.330;2022-09-20T11:54:46;101090.72;;;12.38;100.00
11525;BME280;5819;49.648;8.330;2022-09-20T11:57:21;101082.06;;;12.36;100.00
11525;BME280;5819;49.648;8.330;2022-09-20T11:59:52;101077.72;;;12.37;100.00
11525;BME280;5819;49.648;8.330;2022-09-20T12:02:32;101081.13;;;12.39;100.00
11525;BME280;5819;49.648;8.330;2022-09-20T12:05:03;101075.31;;;12.54;100.00
11525;BME280;5819;49.648;8.330;2022-09-20T12:07:36;101064.75;;;12.79;100.00
11525;BME280;5819;49.648;8.330;2022-09-20T12:10:17;101069.22;;;12.97;100.00
11525;BME280;5819;49.648;8.330;2022-09-20T12:12:48;101056.19;;;13.19;100.00
11525;BME280;5819;49.648;8.330;2022-09-20T12:15:26;101055.38;;;13.17;100.00
11525;BME280;5819;49.648;8.330;2022-09-20T12:21:15;101052.84;;;13.35;100.00
11525;BME280;5819;49.648;8.330;2022-09-20T12:26:51;101037.50;;;14.62;98.29
11525;BME280;5819;49.648;8.330;2022-09-20T12:30:03;101051.06;;;14.32;94.80
11525;BME280;5819;49.648;8.330;2022-09-20T12:32:46;101044.81;;;13.99;100.00
11525;BME280;5819;49.648;8.330;2022-09-20T12:38:39;101054.19;;;13.64;99.67
11525;BME280;5819;49.648;8.330;2022-09-20T12:41:16;101050.13;;;13.77;100.00
11525;BME280;5819;49.648;8.330;2022-09-20T12:44:03;101044.34;;;13.89;100.00
11525;BME280;5819;49.648;8.330;2022-09-20T12:46:36;101055.97;;;13.84;100.00
11525;BME280;5819;49.648;8.330;2022-09-20T12:49:21;101051.97;;;13.75;100.00
11525;BME280;5819;49.648;8.330;2022-09-20T12:52:21;101051.78;;;13.80;100.00
11525;BME280;5819;49.648;8.330;2022-09-20T12:55:10;101053.28;;;13.65;100.00
11525;BME280;5819;49.648;8.330;2022-09-20T12:57:38;101055.72;;;13.49;100.00
11525;BME280;5819;49.648;8.330;2022-09-20T13:00:28;101056.19;;;13.39;100.00
11525;BME280;5819;49.648;8.330;2022-09-20T13:03:11;101062.66;;;13.08;100.00
11525;BME280;5819;49.648;8.330;2022-09-20T13:05:41;101057.47;;;12.87;100.00
11525;BME280;5819;49.648;8.330;2022-09-20T13:08:14;101057.97;;;12.75;100.00
11525;BME280;5819;49.648;8.330;2022-09-20T13:10:47;101054.09;;;12.63;100.00
11525;BME280;5819;49.648;8.330;2022-09-20T13:13:30;101054.53;;;12.73;100.00
11525;BME280;5819;49.648;8.330;2022-09-20T13:16:02;101048.13;;;12.81;100.00
11525;BME280;5819;49.648;8.330;2022-09-20T13:18:33;101052.16;;;12.88;100.00
11525;BME280;5819;49.648;8.330;2022-09-20T13:21:06;101045.91;;;12.92;100.00
11525;BME280;5819;49.648;8.330;2022-09-20T13:23:45;101043.72;;;13.03;100.00
11525;BME280;5819;49.648;8.330;2022-09-20T13:26:20;101059.19;;;13.08;100.00
11525;BME280;5819;49.648;8.330;2022-09-20T13:28:52;101050.06;;;13.20;100.00
11525;BME280;5819;49.648;8.330;2022-09-20T13:31:30;101052.25;;;13.29;100.00
11525;BME280;5819;49.648;8.330;2022-09-20T13:34:13;101047.69;;;13.34;100.00
11525;BME280;5819;49.648;8.330;2022-09-20T13:36:41;101045.59;;;13.42;100.00
11525;BME280;5819;49.648;8.330;2022-09-20T13:39:22;101045.78;;;13.37;100.00
11525;BME280;5819;49.648;8.330;2022-09-20T13:41:51;101046.66;;;13.38;100.00
11525;BME280;5819;49.648;8.330;2022-09-20T13:44:19;101038.09;;;13.34;100.00
11525;BME280;5819;49.648;8.330;2022-09-20T13:46:52;101042.50;;;13.32;100.00
11525;BME280;5819;49.648;8.330;2022-09-20T13:49:19;101039.66;;;13.58;100.00
11525;BME280;5819;49.648;8.330;2022-09-20T13:51:49;101038.31;;;13.48;100.00
11525;BME280;5819;49.648;8.330;2022-09-20T13:54:23;101042.72;;;13.48;100.00
11525;BME280;5819;49.648;8.330;2022-09-20T13:56:55;101038.13;;;13.53;100.00
11525;BME280;5819;49.648;8.330;2022-09-20T13:59:29;101038.22;;;13.51;100.00
11525;BME280;5819;49.648;8.330;2022-09-20T14:02:01;101039.00;;;13.53;100.00
11525;BME280;5819;49.648;8.330;2022-09-20T14:04:30;101033.84;;;13.52;100.00
11525;BME280;5819;49.648;8.330;2022-09-20T14:06:59;101027.44;;;13.78;100.00
11525;BME280;5819;49.648;8.330;2022-09-20T14:09:31;101023.22;;;13.75;100.00
11525;BME280;5819;49.648;8.330;2022-09-20T14:12:02;101015.72;;;13.86;100.00
11525;BME280;5819;49.648;8.330;2022-09-20T14:14:32;101022.31;;;13.95;100.00
11525;BME280;5819;49.648;8.330;2022-09-20T14:17:06;101023.16;;;14.14;100.00
11525;BME280;5819;49.648;8.330;2022-09-20T14:19:40;101019.44;;;14.20;99.18
11525;BME280;5819;49.648;8.330;2022-09-20T14:22:16;101028.19;;;14.19;99.38